Time;durP1;ratioP1;P1;durP2;ratioP2;P2;SDS_P1;SDS_P2;PMS_P1;PMS_P2;Temp;Humidity;BMP_temperature;BMP_pressure;BME280_temperature;BME280_humidity;BME280_pressure;Samples;Min_cycle;Max_cycle;Signal;HPM_P1;HPM_P2
2023/04/26 00:01:19;;;;;;;;;;;;;;;;;;5072121;28;19932;-67
2023/04/26 00:03:46;;;;;;;;;;;;;;;;;;5070691;28;20069;-67
2023/04/26 00:06:13;;;;;;;;;;;;;;;;;;5071576;28;19925;-67
2023/04/26 00:08:41;;;;;;;;;;;;;;;;;;5068808;28;20023;-67
2023/04/26 00:11:08;;;;;;;;;;;;;;;;;;5071900;28;19931;-67
2023/04/26 00:13:35;;;;;;;;;;;;;;;;;;5071769;28;20304;-67
2023/04/26 00:16:03;;;;;;;;;;;;;;;;;;5068662;28;19972;-67
2023/04/26 00:18:31;;;;;;;;;;;;;;;;;;5051455;28;19929;-67
2023/04/26 00:20:58;;;;;;;;;;;;;;;;;;5066808;28;19931;-67
2023/04/26 00:23:25;;;;;;;;;;;;;;;;;;5072568;28;19985;-67
2023/04/26 00:25:52;;;;;;;;;;;;;;;;;;5071897;28;19971;-68
2023/04/26 00:28:19;;;;;;;;;;;;;;;;;;5053534;28;22239;-67
2023/04/26 00:30:47;;;;;;;;;;;;;;;;;;5072081;28;19976;-68
2023/04/26 00:33:14;;;;;;;;;;;;;;;;;;5071247;28;19924;-67
2023/04/26 00:35:42;;;;;;;;;;;;;;;;;;5062204;28;20319;-67
2023/04/26 00:38:09;;;;;;;;;;;;;;;;;;5066808;28;20006;-67
2023/04/26 00:40:36;;;;;;;;;;;;;;;;;;5055361;28;20273;-67
2023/04/26 00:43:03;;;;;;;;;;;;;;;;;;5070796;28;19924;-67
2023/04/26 00:45:30;;;;;;;;;;;;;;;;;;5071011;28;19924;-68
2023/04/26 00:47:57;;;;;;;;;;;;;;;;;;5069560;28;20313;-68
2023/04/26 00:50:24;;;;;;;;;;;;;;;;;;5071120;28;20274;-67
2023/04/26 00:52:51;;;;;;;;;;;;;;;;;;5069679;28;19952;-67
2023/04/26 00:55:18;;;;;;;;;;;;;;;;;;5070239;28;19940;-68
2023/04/26 00:57:45;;;;;;;;;;;;;;;;;;5069102;28;19930;-68
2023/04/26 01:00:12;;;;;;;;;;;;;;;;;;5059394;28;19925;-68
2023/04/26 01:02:40;;;;;;;;;;;;;;;;;;5069668;28;19928;-67
2023/04/26 01:05:08;;;;;;;;;;;;;;;;;;5074306;28;19924;-68
2023/04/26 01:07:35;;;;;;;;;;;;;;;;;;5072527;28;19929;-67
2023/04/26 01:10:03;;;;;;;;;;;;;;;;;;5070306;28;19974;-67
2023/04/26 01:12:31;;;;;;;;;;;;;;;;;;5070096;28;19924;-68
2023/04/26 01:14:58;;;;;;;;;;;;;;;;;;5074967;28;19947;-68
2023/04/26 01:17:25;;;;;;;;;;;;;;;;;;5072018;28;19963;-67
2023/04/26 01:19:52;;;;;;;;;;;;;;;;;;5074375;28;19925;-67
2023/04/26 01:22:20;;;;;;;;;;;;;;;;;;5073978;28;19924;-68
2023/04/26 01:24:47;;;;;;;;;;;;;;;;;;5072352;28;19959;-68
2023/04/26 01:27:15;;;;;;;;;;;;;;;;;;5072319;28;19932;-68
2023/04/26 01:29:42;;;;;;;;;;;;;;;;;;5072360;28;19931;-68
2023/04/26 01:32:09;;;;;;;;;;;;;;;;;;5062914;28;19928;-68
2023/04/26 01:34:36;;;;;;;;;;;;;;;;;;5064750;28;19932;-67
2023/04/26 01:37:03;;;;;;;;;;;;;;;;;;5066642;28;19970;-68
2023/04/26 01:39:30;;;;;;;;;;;;;;;;;;5071764;28;19924;-68
2023/04/26 01:41:58;;;;;;;;;;;;;;;;;;5065004;28;19929;-68
2023/04/26 01:44:25;;;;;;;;;;;;;;;;;;5069852;28;19928;-67
2023/04/26 01:46:52;;;;;;;;;;;;;;;;;;5074578;28;19924;-68
2023/04/26 01:49:19;;;;;;;;;;;;;;;;;;5073637;28;19925;-67
2023/04/26 01:51:46;;;;;;;;;;;;;;;;;;5062887;28;19970;-67
2023/04/26 01:54:13;;;;;;;;;;;;;;;;;;5074410;28;20337;-67
2023/04/26 01:56:40;;;;;;;;;;;;;;;;;;5073998;28;19955;-68
2023/04/26 01:59:07;;;;;;;;;;;;;;;;;;5073778;28;19937;-67
2023/04/26 02:01:34;;;;;;;;;;;;;;;;;;5064080;28;19974;-68
2023/04/26 02:04:01;;;;;;;;;;;;;;;;;;5054056;28;20443;-68
2023/04/26 02:06:28;;;;;;;;;;;;;;;;;;5060112;28;19971;-68
2023/04/26 02:08:55;;;;;;;;;;;;;;;;;;5072217;28;20011;-67
2023/04/26 02:11:22;;;;;;;;;;;;;;;;;;5073266;28;19924;-68
2023/04/26 02:13:49;;;;;;;;;;;;;;;;;;5074464;28;19925;-68
2023/04/26 02:16:16;;;;;;;;;;;;;;;;;;5073828;28;20436;-68
2023/04/26 02:18:43;;;;;;;;;;;;;;;;;;5071336;28;19970;-68
2023/04/26 02:21:10;;;;;;;;;;;;;;;;;;5072889;28;19928;-68
2023/04/26 02:23:37;;;;;;;;;;;;;;;;;;5071701;28;19968;-68
2023/04/26 02:26:04;;;;;;;;;;;;;;;;;;5073448;28;20038;-68
2023/04/26 02:28:31;;;;;;;;;;;;;;;;;;5072939;28;19979;-68
2023/04/26 02:30:58;;;;;;;;;;;;;;;;;;5073532;28;19925;-68
2023/04/26 02:33:25;;;;;;;;;;;;;;;;;;5072834;28;19929;-68
2023/04/26 02:35:52;;;;;;;;;;;;;;;;;;5060966;28;19972;-68
2023/04/26 02:38:19;;;;;;;;;;;;;;;;;;5056478;28;20286;-68
2023/04/26 02:40:46;;;;;;;;;;;;;;;;;;5073312;28;19928;-68
2023/04/26 02:43:13;;;;;;;;;;;;;;;;;;5067056;28;19925;-68
2023/04/26 02:45:40;;;;;;;;;;;;;;;;;;5064908;28;20044;-68
2023/04/26 02:48:07;;;;;;;;;;;;;;;;;;5073581;28;19925;-69
2023/04/26 02:50:35;;;;;;;;;;;;;;;;;;5072986;28;20409;-69
2023/04/26 02:53:02;;;;;;;;;;;;;;;;;;5069558;28;19978;-69
2023/04/26 02:55:29;;;;;;;;;;;;;;;;;;5053450;28;19925;-69
2023/04/26 02:57:56;;;;;;;;;;;;;;;;;;5059721;28;19929;-69
2023/04/26 03:00:24;;;;;;;;;;;;;;;;;;5071208;28;20399;-69
2023/04/26 03:02:51;;;;;;;;;;;;;;;;;;5072948;28;19924;-66
2023/04/26 03:05:18;;;;;;;;;;;;;;;;;;5071364;28;19962;-67
2023/04/26 03:07:45;;;;;;;;;;;;;;;;;;5056474;28;19925;-68
2023/04/26 03:10:12;;;;;;;;;;;;;;;;;;5065784;28;20389;-67
2023/04/26 03:12:40;;;;;;;;;;;;;;;;;;5072217;28;19981;-68
2023/04/26 03:15:07;;;;;;;;;;;;;;;;;;5064498;28;19931;-67
2023/04/26 03:17:34;;;;;;;;;;;;;;;;;;5054276;28;19925;-68
2023/04/26 03:20:01;;;;;;;;;;;;;;;;;;5062791;28;20388;-67
2023/04/26 03:22:28;;;;;;;;;;;;;;;;;;5079293;28;20411;-68
2023/04/26 03:24:55;;;;;;;;;;;;;;;;;;5069690;28;20019;-68
2023/04/26 03:27:22;;;;;;;;;;;;;;;;;;5069740;28;19956;-70
2023/04/26 03:29:49;;;;;;;;;;;;;;;;;;5070739;28;20577;-68
2023/04/26 03:32:16;;;;;;;;;;;;;;;;;;5072466;28;19924;-68
2023/04/26 03:34:43;;;;;;;;;;;;;;;;;;5060758;28;19978;-68
2023/04/26 03:37:10;;;;;;;;;;;;;;;;;;5068914;28;19960;-68
2023/04/26 03:39:37;;;;;;;;;;;;;;;;;;5071072;28;19924;-68
2023/04/26 03:42:04;;;;;;;;;;;;;;;;;;5072496;28;19985;-68
2023/04/26 03:44:31;;;;;;;;;;;;;;;;;;5067842;28;19924;-68
2023/04/26 03:46:58;;;;;;;;;;;;;;;;;;5071400;28;19925;-68
2023/04/26 03:49:25;;;;;;;;;;;;;;;;;;5070030;28;19963;-68
2023/04/26 03:51:52;;;;;;;;;;;;;;;;;;5071201;28;19929;-68
2023/04/26 03:54:19;;;;;;;;;;;;;;;;;;5071466;28;19924;-69
2023/04/26 03:56:46;;;;;;;;;;;;;;;;;;5071304;28;20007;-68
2023/04/26 03:59:13;;;;;;;;;;;;;;;;;;5069763;28;19986;-68
2023/04/26 04:01:40;;;;;;;;;;;;;;;;;;5064921;28;19924;-68
2023/04/26 04:04:08;;;;;;;;;;;;;;;;;;5052517;28;20023;-68
2023/04/26 04:06:37;;;;;;;;;;;;;;;;;;5051937;28;20028;-68
2023/04/26 04:09:04;;;;;;;;;;;;;;;;;;5064196;28;20023;-68
2023/04/26 04:11:31;;;;;;;;;;;;;;;;;;5052619;28;19929;-68
2023/04/26 04:13:58;;;;;;;;;;;;;;;;;;5052074;28;20023;-69
2023/04/26 04:16:25;;;;;;;;;;;;;;;;;;5071175;28;20336;-68
2023/04/26 04:18:52;;;;;;;;;;;;;;;;;;5064182;28;19925;-68
2023/04/26 04:21:19;;;;;;;;;;;;;;;;;;5069771;28;20446;-69
2023/04/26 04:23:47;;;;;;;;;;;;;;;;;;5066331;28;19936;-66
2023/04/26 04:26:13;;;;;;;;;;;;;;;;;;5071337;28;19925;-66
2023/04/26 04:28:41;;;;;;;;;;;;;;;;;;5070841;28;20376;-69
2023/04/26 04:31:08;;;;;;;;;;;;;;;;;;5070180;28;19925;-68
2023/04/26 04:33:35;;;;;;;;;;;;;;;;;;5071627;28;19928;-69
2023/04/26 04:36:02;;;;;;;;;;;;;;;;;;5070719;28;19993;-68
2023/04/26 04:38:29;;;;;;;;;;;;;;;;;;5067062;28;19956;-68
2023/04/26 04:40:56;;;;;;;;;;;;;;;;;;5056906;28;19975;-68
2023/04/26 04:43:24;;;;;;;;;;;;;;;;;;5055219;28;19929;-68
2023/04/26 04:45:51;;;;;;;;;;;;;;;;;;5060148;28;19931;-68
2023/04/26 04:48:19;;;;;;;;;;;;;;;;;;5074027;28;19986;-68
2023/04/26 04:50:46;;;;;;;;;;;;;;;;;;5074502;28;19924;-68
2023/04/26 04:53:13;;;;;;;;;;;;;;;;;;5071596;28;20349;-68
2023/04/26 04:55:40;;;;;;;;;;;;;;;;;;5056675;28;19925;-68
2023/04/26 04:58:07;;;;;;;;;;;;;;;;;;5059472;28;19976;-68
2023/04/26 05:00:36;;;;;;;;;;;;;;;;;;5060898;28;19925;-69
2023/04/26 05:03:03;;;;;;;;;;;;;;;;;;5054584;28;20023;-68
2023/04/26 05:05:30;;;;;;;;;;;;;;;;;;5071782;28;19925;-68
2023/04/26 05:07:58;;;;;;;;;;;;;;;;;;5072877;28;19948;-69
2023/04/26 05:10:25;;;;;;;;;;;;;;;;;;5066361;28;19924;-68
2023/04/26 05:12:52;;;;;;;;;;;;;;;;;;5074276;28;19990;-69
2023/04/26 05:15:19;;;;;;;;;;;;;;;;;;5073555;28;19924;-69
2023/04/26 05:17:46;;;;;;;;;;;;;;;;;;5074567;28;19925;-68
2023/04/26 05:20:13;;;;;;;;;;;;;;;;;;5073407;28;20053;-66
2023/04/26 05:22:40;;;;;;;;;;;;;;;;;;5056226;28;19929;-67
2023/04/26 05:25:07;;;;;;;;;;;;;;;;;;5068343;28;20064;-67
2023/04/26 05:27:36;;;;;;;;;;;;;;;;;;5060583;28;19936;-68
2023/04/26 05:30:03;;;;;;;;;;;;;;;;;;5072764;28;20023;-69
2023/04/26 05:32:31;;;;;;;;;;;;;;;;;;5071661;28;19931;-68
2023/04/26 05:34:58;;;;;;;;;;;;;;;;;;5072086;28;19924;-68
2023/04/26 05:37:25;;;;;;;;;;;;;;;;;;5073683;28;19978;-68
2023/04/26 05:39:52;;;;;;;;;;;;;;;;;;5070065;28;20446;-68
2023/04/26 05:42:19;;;;;;;;;;;;;;;;;;5056331;28;19925;-67
2023/04/26 05:44:46;;;;;;;;;;;;;;;;;;5068395;28;19924;-67
2023/04/26 05:47:13;;;;;;;;;;;;;;;;;;5072127;28;19928;-66
2023/04/26 05:49:40;;;;;;;;;;;;;;;;;;5061424;28;20396;-68
2023/04/26 05:52:07;;;;;;;;;;;;;;;;;;5066644;28;19959;-68
2023/04/26 05:54:34;;;;;;;;;;;;;;;;;;5071436;28;19924;-68
2023/04/26 05:57:02;;;;;;;;;;;;;;;;;;5067833;28;20380;-68
2023/04/26 05:59:31;;;;;;;;;;;;;;;;;;5068344;28;19932;-67
2023/04/26 06:01:58;;;;;;;;;;;;;;;;;;5070543;28;19925;-68
2023/04/26 06:04:25;;;;;;;;;;;;;;;;;;5073820;28;19973;-67
2023/04/26 06:06:52;;;;;;;;;;;;;;;;;;5072530;28;19982;-68
2023/04/26 06:09:19;;;;;;;;;;;;;;;;;;5072391;28;19985;-67
2023/04/26 06:11:46;;;;;;;;;;;;;;;;;;5055490;28;19978;-68
2023/04/26 06:14:13;;;;;;;;;;;;;;;;;;5070300;28;19925;-68
2023/04/26 06:16:40;;;;;;;;;;;;;;;;;;5070462;28;20018;-68
2023/04/26 06:19:07;;;;;;;;;;;;;;;;;;5071535;28;20274;-68
2023/04/26 06:21:34;;;;;;;;;;;;;;;;;;5070351;28;19990;-69
2023/04/26 06:24:02;;;;;;;;;;;;;;;;;;5069746;28;19924;-68
2023/04/26 06:26:29;;;;;;;;;;;;;;;;;;5067408;28;19939;-68
2023/04/26 06:29:00;;;;;;;;;;;;;;;;;;5071570;28;19925;-69
2023/04/26 06:31:27;;;;;;;;;;;;;;;;;;5071196;28;19938;-67
2023/04/26 06:33:55;;;;;;;;;;;;;;;;;;5072871;28;19931;-68
2023/04/26 06:36:22;;;;;;;;;;;;;;;;;;5073205;28;19932;-68
2023/04/26 06:38:48;;;;;;;;;;;;;;;;;;5061996;28;19978;-68
2023/04/26 06:41:15;;;;;;;;;;;;;;;;;;5068958;28;19986;-68
2023/04/26 06:43:42;;;;;;;;;;;;;;;;;;5070914;28;19931;-68
2023/04/26 06:46:09;;;;;;;;;;;;;;;;;;5057288;28;20296;-67
2023/04/26 06:48:36;;;;;;;;;;;;;;;;;;5067580;28;19924;-67
2023/04/26 06:51:03;;;;;;;;;;;;;;;;;;5062392;28;19993;-67
2023/04/26 06:53:30;;;;;;;;;;;;;;;;;;5057934;28;19968;-67
2023/04/26 06:55:57;;;;;;;;;;;;;;;;;;5056910;28;19978;-68
2023/04/26 06:58:24;;;;;;;;;;;;;;;;;;5064809;28;19982;-68
2023/04/26 07:00:51;;;;;;;;;;;;;;;;;;5056798;28;19972;-67
2023/04/26 07:03:18;;;;;;;;;;;;;;;;;;5057501;28;19982;-67
2023/04/26 07:05:46;;;;;;;;;;;;;;;;;;5062565;28;19979;-67
2023/04/26 07:08:13;;;;;;;;;;;;;;;;;;5059076;28;19929;-66
2023/04/26 07:10:40;;;;;;;;;;;;;;;;;;5063136;28;19972;-66
2023/04/26 07:13:07;;;;;;;;;;;;;;;;;;5068373;28;19955;-67
2023/04/26 07:15:35;;;;;;;;;;;;;;;;;;5062323;28;19936;-67
2023/04/26 07:18:02;;;;;;;;;;;;;;;;;;5063701;28;19924;-67
2023/04/26 07:20:29;;;;;;;;;;;;;;;;;;5066013;28;19925;-66
2023/04/26 07:22:56;;;;;;;;;;;;;;;;;;5067807;28;19931;-66
2023/04/26 07:25:23;;;;;;;;;;;;;;;;;;5066025;28;20404;-66
2023/04/26 07:27:51;;;;;;;;;;;;;;;;;;5062620;28;19931;-66
2023/04/26 07:30:18;;;;;;;;;;;;;;;;;;5063361;28;19933;-67
2023/04/26 07:32:45;;;;;;;;;;;;;;;;;;5065487;28;19968;-69
2023/04/26 07:35:14;;;;;;;;;;;;;;;;;;5069695;28;19932;-67
2023/04/26 07:37:41;;;;;;;;;;;;;;;;;;5072176;28;20013;-67
2023/04/26 07:40:09;;;;;;;;;;;;;;;;;;5052105;28;19925;-67
2023/04/26 07:42:36;;;;;;;;;;;;;;;;;;5067610;28;19924;-67
2023/04/26 07:45:03;;;;;;;;;;;;;;;;;;5070067;28;20434;-68
2023/04/26 07:47:30;;;;;;;;;;;;;;;;;;5056561;28;20326;-67
2023/04/26 07:49:57;;;;;;;;;;;;;;;;;;5064731;28;19965;-67
2023/04/26 07:52:24;;;;;;;;;;;;;;;;;;5066155;28;19965;-68
2023/04/26 07:54:51;;;;;;;;;;;;;;;;;;5054509;28;19924;-68
2023/04/26 07:57:18;;;;;;;;;;;;;;;;;;5062441;28;20380;-68
2023/04/26 07:59:45;;;;;;;;;;;;;;;;;;5061736;28;20392;-67
2023/04/26 08:02:12;;;;;;;;;;;;;;;;;;5060855;28;19933;-68
2023/04/26 08:04:39;;;;;;;;;;;;;;;;;;5060392;28;20392;-70
2023/04/26 08:07:06;;;;;;;;;;;;;;;;;;5067402;28;20022;-69
2023/04/26 08:09:33;;;;;;;;;;;;;;;;;;5064232;28;20420;-69
2023/04/26 08:12:00;;;;;;;;;;;;;;;;;;5066263;28;19928;-70
2023/04/26 08:14:29;;;;;;;;;;;;;;;;;;5065819;28;19974;-70
2023/04/26 08:16:56;;;;;;;;;;;;;;;;;;5068890;28;20003;-69
2023/04/26 08:19:23;;;;;;;;;;;;;;;;;;5067580;28;20470;-69
2023/04/26 08:21:50;;;;;;;;;;;;;;;;;;5066300;28;19928;-69
2023/04/26 08:24:17;;;;;;;;;;;;;;;;;;5061211;28;20261;-69
2023/04/26 08:26:44;;;;;;;;;;;;;;;;;;5066692;28;19925;-69
2023/04/26 08:29:11;;;;;;;;;;;;;;;;;;5053658;28;19990;-69
2023/04/26 08:31:38;;;;;;;;;;;;;;;;;;5068403;28;19995;-67
2023/04/26 08:34:05;;;;;;;;;;;;;;;;;;5065762;28;19938;-68
2023/04/26 08:36:32;;;;;;;;;;;;;;;;;;5068989;28;19925;-68
2023/04/26 08:38:59;;;;;;;;;;;;;;;;;;5058321;28;19931;-68
2023/04/26 08:41:26;;;;;;;;;;;;;;;;;;5060502;28;19932;-69
2023/04/26 08:43:54;;;;;;;;;;;;;;;;;;5063231;28;19968;-68
2023/04/26 08:46:21;;;;;;;;;;;;;;;;;;5057820;28;19924;-68
2023/04/26 08:48:48;;;;;;;;;;;;;;;;;;5065975;28;19950;-69
2023/04/26 08:51:15;;;;;;;;;;;;;;;;;;5069556;28;19924;-69
2023/04/26 08:53:42;;;;;;;;;;;;;;;;;;5067553;28;20033;-68
2023/04/26 08:56:09;;;;;;;;;;;;;;;;;;5065948;28;19932;-69
2023/04/26 08:58:36;;;;;;;;;;;;;;;;;;5061910;28;19950;-69
2023/04/26 09:01:03;;;;;;;;;;;;;;;;;;5060968;28;19940;-68
2023/04/26 09:03:30;;;;;;;;;;;;;;;;;;5066936;28;19924;-68
2023/04/26 09:05:57;;;;;;;;;;;;;;;;;;5068528;28;19936;-68
2023/04/26 09:08:24;;;;;;;;;;;;;;;;;;5059245;28;19954;-68
2023/04/26 09:10:51;;;;;;;;;;;;;;;;;;5059909;28;19925;-68
2023/04/26 09:13:18;;;;;;;;;;;;;;;;;;5067864;28;19982;-67
2023/04/26 09:15:45;;;;;;;;;;;;;;;;;;5069894;28;20337;-67
2023/04/26 09:18:12;;;;;;;;;;;;;;;;;;5061932;28;19924;-67
2023/04/26 09:20:39;;;;;;;;;;;;;;;;;;5060397;28;19944;-68
2023/04/26 09:23:06;;;;;;;;;;;;;;;;;;5059633;28;20018;-67
2023/04/26 09:25:33;;;;;;;;;;;;;;;;;;5062445;28;19933;-68
2023/04/26 09:28:00;;;;;;;;;;;;;;;;;;5070967;28;19936;-68
2023/04/26 09:30:27;;;;;;;;;;;;;;;;;;5068129;28;20450;-68
2023/04/26 09:32:55;;;;;;;;;;;;;;;;;;5071508;28;19956;-68
2023/04/26 09:35:22;;;;;;;;;;;;;;;;;;5072210;28;20019;-67
2023/04/26 09:37:49;;;;;;;;;;;;;;;;;;5064506;28;19933;-68
2023/04/26 09:40:16;;;;;;;;;;;;;;;;;;5073221;28;20033;-67
2023/04/26 09:42:43;;;;;;;;;;;;;;;;;;5073796;28;19969;-73
2023/04/26 09:45:10;;;;;;;;;;;;;;;;;;5065697;28;19964;-73
2023/04/26 09:47:37;;;;;;;;;;;;;;;;;;5067161;28;19973;-74
2023/04/26 09:50:04;;;;;;;;;;;;;;;;;;5058207;28;19941;-75
2023/04/26 09:52:32;;;;;;;;;;;;;;;;;;5063508;28;19931;-74
2023/04/26 09:55:01;;;;;;;;;;;;;;;;;;5066700;28;19931;-74
2023/04/26 09:57:28;;;;;;;;;;;;;;;;;;5064410;28;19979;-73
2023/04/26 09:59:55;;;;;;;;;;;;;;;;;;5061417;28;19978;-73
2023/04/26 10:02:22;;;;;;;;;;;;;;;;;;5065720;28;19951;-73
2023/04/26 10:04:49;;;;;;;;;;;;;;;;;;5062281;28;19924;-73
2023/04/26 10:07:16;;;;;;;;;;;;;;;;;;5061073;28;19998;-74
2023/04/26 10:09:43;;;;;;;;;;;;;;;;;;5062270;28;20171;-73
2023/04/26 10:12:10;;;;;;;;;;;;;;;;;;5062101;28;20007;-73
2023/04/26 10:14:37;;;;;;;;;;;;;;;;;;5060836;28;19983;-72
2023/04/26 10:17:04;;;;;;;;;;;;;;;;;;5052724;28;19933;-68
2023/04/26 10:19:31;;;;;;;;;;;;;;;;;;5057623;28;19928;-68
2023/04/26 10:21:58;;;;;;;;;;;;;;;;;;5057654;28;19939;-69
2023/04/26 10:24:25;;;;;;;;;;;;;;;;;;5063250;28;20437;-67
2023/04/26 10:26:53;;;;;;;;;;;;;;;;;;5068023;28;19931;-70
2023/04/26 10:29:20;;;;;;;;;;;;;;;;;;5070460;28;19925;-67
2023/04/26 10:31:47;;;;;;;;;;;;;;;;;;5063116;28;19924;-68
2023/04/26 10:34:14;;;;;;;;;;;;;;;;;;5068941;28;19924;-67
2023/04/26 10:36:41;;;;;;;;;;;;;;;;;;5067995;28;19983;-67
2023/04/26 10:39:08;;;;;;;;;;;;;;;;;;5064039;28;19986;-66
2023/04/26 10:41:36;;;;;;;;;;;;;;;;;;5063425;28;19928;-67
2023/04/26 10:44:03;;;;;;;;;;;;;;;;;;5069253;28;19928;-67
2023/04/26 10:46:30;;;;;;;;;;;;;;;;;;5059359;28;19932;-68
2023/04/26 10:48:57;;;;;;;;;;;;;;;;;;5069382;28;19928;-67
2023/04/26 10:51:24;;;;;;;;;;;;;;;;;;5063872;28;19978;-67
2023/04/26 10:53:51;;;;;;;;;;;;;;;;;;5067729;28;19938;-67
2023/04/26 10:56:18;;;;;;;;;;;;;;;;;;5062296;28;20514;-68
2023/04/26 10:58:45;;;;;;;;;;;;;;;;;;5064808;28;20290;-68
2023/04/26 11:01:12;;;;;;;;;;;;;;;;;;5063170;28;20031;-68
2023/04/26 11:03:39;;;;;;;;;;;;;;;;;;5065815;28;19928;-69
2023/04/26 11:06:08;;;;;;;;;;;;;;;;;;5069987;28;19924;-67
2023/04/26 11:08:35;;;;;;;;;;;;;;;;;;5068701;28;20043;-66
2023/04/26 11:11:02;;;;;;;;;;;;;;;;;;5069462;28;19924;-68
2023/04/26 11:13:29;;;;;;;;;;;;;;;;;;5070357;28;20045;-72
2023/04/26 11:15:57;;;;;;;;;;;;;;;;;;5063154;28;19986;-70
2023/04/26 11:18:24;;;;;;;;;;;;;;;;;;5064362;28;19948;-69
2023/04/26 11:20:51;;;;;;;;;;;;;;;;;;5059380;28;19985;-71
2023/04/26 11:23:18;;;;;;;;;;;;;;;;;;5064847;28;19928;-72
2023/04/26 11:25:45;;;;;;;;;;;;;;;;;;5054027;28;19928;-71
2023/04/26 11:28:12;;;;;;;;;;;;;;;;;;5062289;28;20013;-73
2023/04/26 11:30:39;;;;;;;;;;;;;;;;;;5070476;28;20011;-75
2023/04/26 11:33:06;;;;;;;;;;;;;;;;;;5061760;28;19925;-71
2023/04/26 11:35:33;;;;;;;;;;;;;;;;;;5067574;28;19925;-69
2023/04/26 11:38:00;;;;;;;;;;;;;;;;;;5067311;28;19925;-69
2023/04/26 11:40:27;;;;;;;;;;;;;;;;;;5063682;28;19928;-69
2023/04/26 11:42:54;;;;;;;;;;;;;;;;;;5068638;28;19928;-69
2023/04/26 11:45:21;;;;;;;;;;;;;;;;;;5064076;28;19962;-69
2023/04/26 11:47:48;;;;;;;;;;;;;;;;;;5059122;28;21849;-70
2023/04/26 11:50:15;;;;;;;;;;;;;;;;;;5069823;28;19929;-71
2023/04/26 11:52:42;;;;;;;;;;;;;;;;;;5068262;28;19924;-69
2023/04/26 11:55:10;;;;;;;;;;;;;;;;;;5062836;28;20286;-70
2023/04/26 11:57:37;;;;;;;;;;;;;;;;;;5066623;28;20038;-68
2023/04/26 12:00:04;;;;;;;;;;;;;;;;;;5063192;28;19925;-69
2023/04/26 12:02:33;;;;;;;;;;;;;;;;;;5066365;28;19955;-68
2023/04/26 12:05:02;;;;;;;;;;;;;;;;;;5068065;28;20431;-69
2023/04/26 12:07:29;;;;;;;;;;;;;;;;;;5067001;28;20415;-68
2023/04/26 12:09:56;;;;;;;;;;;;;;;;;;5059187;28;19925;-68
2023/04/26 12:12:23;;;;;;;;;;;;;;;;;;5068217;28;20385;-66
2023/04/26 12:14:50;;;;;;;;;;;;;;;;;;5065093;28;19925;-67
2023/04/26 12:17:17;;;;;;;;;;;;;;;;;;5068636;28;19924;-67
2023/04/26 12:19:44;;;;;;;;;;;;;;;;;;5065167;28;19924;-67
2023/04/26 12:22:11;;;;;;;;;;;;;;;;;;5068367;28;19924;-67
2023/04/26 12:24:39;;;;;;;;;;;;;;;;;;5061070;28;19931;-68
2023/04/26 12:27:06;;;;;;;;;;;;;;;;;;5064659;28;19925;-68
2023/04/26 12:29:33;;;;;;;;;;;;;;;;;;5067491;28;19979;-67
2023/04/26 12:32:00;;;;;;;;;;;;;;;;;;5070587;28;19924;-67
2023/04/26 12:34:27;;;;;;;;;;;;;;;;;;5060860;28;19929;-68
2023/04/26 12:36:54;;;;;;;;;;;;;;;;;;5066765;28;20624;-67
2023/04/26 12:39:21;;;;;;;;;;;;;;;;;;5065390;28;19964;-67
2023/04/26 12:41:49;;;;;;;;;;;;;;;;;;5068996;28;19947;-67
2023/04/26 12:44:16;;;;;;;;;;;;;;;;;;5070486;28;19964;-67
2023/04/26 12:46:43;;;;;;;;;;;;;;;;;;5069376;28;19970;-67
2023/04/26 12:49:10;;;;;;;;;;;;;;;;;;5068903;28;19940;-67
2023/04/26 12:51:37;;;;;;;;;;;;;;;;;;5069387;28;20382;-66
2023/04/26 12:54:04;;;;;;;;;;;;;;;;;;5069147;28;19925;-68
2023/04/26 12:56:31;;;;;;;;;;;;;;;;;;5067199;28;20323;-68
2023/04/26 12:58:58;;;;;;;;;;;;;;;;;;5069619;28;19924;-68
2023/04/26 13:01:25;;;;;;;;;;;;;;;;;;5067034;28;19928;-68
2023/04/26 13:03:54;;;;;;;;;;;;;;;;;;5068060;28;19960;-67
2023/04/26 13:06:21;;;;;;;;;;;;;;;;;;5074027;28;19932;-67
2023/04/26 13:08:48;;;;;;;;;;;;;;;;;;5073686;28;19985;-67
2023/04/26 13:11:15;;;;;;;;;;;;;;;;;;5071399;28;19951;-67
2023/04/26 13:13:42;;;;;;;;;;;;;;;;;;5068541;28;19924;-66
2023/04/26 13:16:09;;;;;;;;;;;;;;;;;;5073952;28;20014;-67
2023/04/26 13:18:36;;;;;;;;;;;;;;;;;;5069880;28;19986;-67
2023/04/26 13:21:03;;;;;;;;;;;;;;;;;;5067238;28;19925;-67
2023/04/26 13:23:30;;;;;;;;;;;;;;;;;;5064672;28;19975;-68
2023/04/26 13:25:57;;;;;;;;;;;;;;;;;;5060712;28;19924;-68
2023/04/26 13:28:24;;;;;;;;;;;;;;;;;;5071330;28;19978;-68
2023/04/26 13:30:51;;;;;;;;;;;;;;;;;;5067534;28;19929;-68
2023/04/26 13:33:18;;;;;;;;;;;;;;;;;;5073861;28;19925;-68
2023/04/26 13:35:45;;;;;;;;;;;;;;;;;;5073020;28;19975;-68
2023/04/26 13:38:12;;;;;;;;;;;;;;;;;;5065752;28;19932;-68
2023/04/26 13:40:39;;;;;;;;;;;;;;;;;;5071034;28;20006;-67
2023/04/26 13:43:06;;;;;;;;;;;;;;;;;;5074467;28;20376;-67
2023/04/26 13:45:33;;;;;;;;;;;;;;;;;;5066720;28;19924;-67
2023/04/26 13:48:01;;;;;;;;;;;;;;;;;;5069030;28;19925;-67
2023/04/26 13:50:28;;;;;;;;;;;;;;;;;;5060398;28;19979;-67
2023/04/26 13:52:55;;;;;;;;;;;;;;;;;;5072438;28;19931;-68
2023/04/26 13:55:22;;;;;;;;;;;;;;;;;;5072920;28;20296;-67
2023/04/26 13:57:49;;;;;;;;;;;;;;;;;;5071916;28;19924;-67
2023/04/26 14:00:16;;;;;;;;;;;;;;;;;;5071966;28;19925;-67
2023/04/26 14:02:43;;;;;;;;;;;;;;;;;;5066054;28;19956;-67
2023/04/26 14:05:10;;;;;;;;;;;;;;;;;;5069343;28;19970;-67
2023/04/26 14:07:37;;;;;;;;;;;;;;;;;;5068633;28;20446;-66
2023/04/26 14:10:04;;;;;;;;;;;;;;;;;;5063969;28;19925;-66
2023/04/26 14:12:31;;;;;;;;;;;;;;;;;;5068043;28;20269;-66
2023/04/26 14:15:01;;;;;;;;;;;;;;;;;;5059384;28;19924;-67
2023/04/26 14:17:28;;;;;;;;;;;;;;;;;;5072800;28;19935;-67
2023/04/26 14:19:55;;;;;;;;;;;;;;;;;;5068958;28;19960;-67
2023/04/26 14:22:22;;;;;;;;;;;;;;;;;;5072927;28;19928;-68
2023/04/26 14:24:49;;;;;;;;;;;;;;;;;;5066912;28;19928;-67
2023/04/26 14:27:16;;;;;;;;;;;;;;;;;;5065093;28;19924;-68
2023/04/26 14:29:43;;;;;;;;;;;;;;;;;;5070617;28;19925;-67
2023/04/26 14:32:10;;;;;;;;;;;;;;;;;;5069913;28;19978;-67
2023/04/26 14:34:38;;;;;;;;;;;;;;;;;;5070053;28;19939;-68
2023/04/26 14:37:05;;;;;;;;;;;;;;;;;;5067792;28;19974;-67
2023/04/26 14:39:32;;;;;;;;;;;;;;;;;;5066676;28;19935;-67
2023/04/26 14:41:59;;;;;;;;;;;;;;;;;;5067243;28;19978;-67
2023/04/26 14:44:26;;;;;;;;;;;;;;;;;;5065658;28;19956;-67
2023/04/26 14:46:53;;;;;;;;;;;;;;;;;;5071260;28;19932;-67
2023/04/26 14:49:20;;;;;;;;;;;;;;;;;;5064226;28;19959;-67
2023/04/26 14:51:47;;;;;;;;;;;;;;;;;;5051759;28;19932;-66
2023/04/26 14:54:15;;;;;;;;;;;;;;;;;;5065817;28;20014;-67
2023/04/26 14:56:42;;;;;;;;;;;;;;;;;;5072406;28;19968;-67
2023/04/26 14:59:09;;;;;;;;;;;;;;;;;;5061329;28;19970;-67
2023/04/26 15:01:36;;;;;;;;;;;;;;;;;;5067676;28;20434;-68
2023/04/26 15:04:03;;;;;;;;;;;;;;;;;;5071183;28;19972;-68
2023/04/26 15:06:32;;;;;;;;;;;;;;;;;;5063720;28;19929;-67
2023/04/26 15:09:00;;;;;;;;;;;;;;;;;;5063339;28;19971;-67
2023/04/26 15:11:27;;;;;;;;;;;;;;;;;;5065119;28;20132;-67
2023/04/26 15:13:54;;;;;;;;;;;;;;;;;;5069414;28;20019;-68
2023/04/26 15:16:21;;;;;;;;;;;;;;;;;;5066896;28;19928;-68
2023/04/26 15:18:48;;;;;;;;;;;;;;;;;;5061840;28;19924;-68
2023/04/26 15:21:15;;;;;;;;;;;;;;;;;;5066153;28;20347;-67
2023/04/26 15:23:42;;;;;;;;;;;;;;;;;;5071586;28;19963;-67
2023/04/26 15:26:09;;;;;;;;;;;;;;;;;;5066227;28;20023;-68
2023/04/26 15:28:36;;;;;;;;;;;;;;;;;;5069854;28;19929;-68
2023/04/26 15:31:03;;;;;;;;;;;;;;;;;;5065676;28;19925;-69
2023/04/26 15:33:30;;;;;;;;;;;;;;;;;;5053544;28;20368;-68
2023/04/26 15:35:57;;;;;;;;;;;;;;;;;;5060499;28;19970;-68
2023/04/26 15:38:24;;;;;;;;;;;;;;;;;;5062752;28;19928;-68
2023/04/26 15:40:52;;;;;;;;;;;;;;;;;;5062239;28;19924;-68
2023/04/26 15:43:19;;;;;;;;;;;;;;;;;;5061947;28;20313;-68
2023/04/26 15:45:47;;;;;;;;;;;;;;;;;;5052640;28;20019;-68
2023/04/26 15:48:14;;;;;;;;;;;;;;;;;;5060968;28;19925;-68
2023/04/26 15:50:41;;;;;;;;;;;;;;;;;;5060713;28;20380;-66
2023/04/26 15:53:08;;;;;;;;;;;;;;;;;;5071555;28;20450;-68
2023/04/26 15:55:35;;;;;;;;;;;;;;;;;;5066498;28;19924;-69
2023/04/26 15:58:02;;;;;;;;;;;;;;;;;;5069496;28;20324;-67
2023/04/26 16:00:30;;;;;;;;;;;;;;;;;;5063494;28;19925;-67
2023/04/26 16:02:57;;;;;;;;;;;;;;;;;;5053854;28;19925;-67
2023/04/26 16:05:25;;;;;;;;;;;;;;;;;;5071224;28;19958;-67
2023/04/26 16:07:52;;;;;;;;;;;;;;;;;;5059612;28;20333;-67
2023/04/26 16:10:19;;;;;;;;;;;;;;;;;;5067057;28;19924;-67
2023/04/26 16:12:46;;;;;;;;;;;;;;;;;;5062825;28;19940;-67
2023/04/26 16:15:13;;;;;;;;;;;;;;;;;;5062925;28;19924;-67
2023/04/26 16:17:40;;;;;;;;;;;;;;;;;;5061301;28;20423;-68
2023/04/26 16:20:08;;;;;;;;;;;;;;;;;;5068346;28;19970;-68
2023/04/26 16:22:35;;;;;;;;;;;;;;;;;;5067868;28;20401;-68
2023/04/26 16:25:02;;;;;;;;;;;;;;;;;;5067517;28;19971;-68
2023/04/26 16:27:29;;;;;;;;;;;;;;;;;;5066498;28;19935;-68
2023/04/26 16:29:57;;;;;;;;;;;;;;;;;;5070001;28;19928;-68
2023/04/26 16:32:24;;;;;;;;;;;;;;;;;;5055956;28;19972;-68
2023/04/26 16:34:51;;;;;;;;;;;;;;;;;;5057815;28;19924;-68
2023/04/26 16:37:18;;;;;;;;;;;;;;;;;;5068269;28;20033;-69
2023/04/26 16:39:45;;;;;;;;;;;;;;;;;;5056560;28;20289;-68
2023/04/26 16:42:12;;;;;;;;;;;;;;;;;;5070870;28;19925;-68
2023/04/26 16:44:40;;;;;;;;;;;;;;;;;;5070660;28;20404;-68